Austin, Kentucky
Current Conditions -  °F | °C
As of 8:15 PM on Friday 19 Dec 2014 (Local Time) from KGLW Reporting Station
Clear Clear  
Wind Chill: 32°   Ceiling: Unl
Heat Index: 32°   Visibility: 10mi
Dew Point: 25°   Wind: 3mph
Humidity: 75%   Direction: 30°NNE
Pressure: 30.23"   Gusts: NA
Location:  36.83°N, 86.02°W
Report Text: KGLW 200215Z AUTO 03003KT 10SM CLR 00/M04 A3023 RMK AO2 T10011041
Loading
Personal Weather Stations






























Interactive Weather Map New forecast layout! Learn more

10-Day Weather Forecast

Advertisements
Track Severe Weather on mobile